sensor_id;sensor_type;location;lat;lon;timestamp;P1;durP1;ratioP1;P2;durP2;ratioP2
1505;SDS011;744;51.436;7.356;2023-06-22T05:15:26;13.30;;;9.60;;
1505;SDS011;744;51.436;7.356;2023-06-22T05:17:56;10.63;;;9.50;;
1505;SDS011;744;51.436;7.356;2023-06-22T05:20:24;12.40;;;8.60;;
1505;SDS011;744;51.436;7.356;2023-06-22T05:22:52;9.10;;;8.40;;
1505;SDS011;744;51.436;7.356;2023-06-22T05:25:19;9.40;;;8.50;;
1505;SDS011;744;51.436;7.356;2023-06-22T05:27:45;8.67;;;7.97;;
1505;SDS011;744;51.436;7.356;2023-06-22T05:30:12;10.03;;;7.37;;
1505;SDS011;744;51.436;7.356;2023-06-22T05:32:39;9.90;;;7.90;;
1505;SDS011;744;51.436;7.356;2023-06-22T05:35:06;11.50;;;8.53;;
1505;SDS011;744;51.436;7.356;2023-06-22T05:37:33;11.30;;;7.13;;
1505;SDS011;744;51.436;7.356;2023-06-22T05:40:00;8.07;;;7.37;;
1505;SDS011;744;51.436;7.356;2023-06-22T05:42:28;11.63;;;9.77;;
1505;SDS011;744;51.436;7.356;2023-06-22T05:44:54;21.53;;;9.13;;
1505;SDS011;744;51.436;7.356;2023-06-22T05:47:21;10.40;;;8.73;;
1505;SDS011;744;51.436;7.356;2023-06-22T05:49:49;11.83;;;8.73;;
1505;SDS011;744;51.436;7.356;2023-06-22T05:52:16;14.27;;;10.87;;
1505;SDS011;744;51.436;7.356;2023-06-22T05:54:43;9.60;;;8.60;;
1505;SDS011;744;51.436;7.356;2023-06-22T05:57:10;10.17;;;9.20;;
1505;SDS011;744;51.436;7.356;2023-06-22T05:59:37;18.60;;;9.03;;
1505;SDS011;744;51.436;7.356;2023-06-22T06:02:04;13.47;;;10.57;;
1505;SDS011;744;51.436;7.356;2023-06-22T06:04:31;14.23;;;10.00;;
1505;SDS011;744;51.436;7.356;2023-06-22T06:06:58;11.00;;;9.90;;
1505;SDS011;744;51.436;7.356;2023-06-22T06:09:25;11.17;;;10.03;;
1505;SDS011;744;51.436;7.356;2023-06-22T06:11:52;10.70;;;9.30;;
1505;SDS011;744;51.436;7.356;2023-06-22T06:14:19;12.73;;;8.87;;
1505;SDS011;744;51.436;7.356;2023-06-22T06:16:48;10.30;;;9.27;;
1505;SDS011;744;51.436;7.356;2023-06-22T06:19:15;12.53;;;10.27;;
1505;SDS011;744;51.436;7.356;2023-06-22T06:21:42;13.30;;;10.20;;
1505;SDS011;744;51.436;7.356;2023-06-22T06:24:09;14.70;;;9.93;;
1505;SDS011;744;51.436;7.356;2023-06-22T06:26:36;10.03;;;9.13;;
1505;SDS011;744;51.436;7.356;2023-06-22T06:29:02;12.43;;;11.23;;
1505;SDS011;744;51.436;7.356;2023-06-22T06:31:29;20.00;;;11.37;;
1505;SDS011;744;51.436;7.356;2023-06-22T06:33:56;69.03;;;15.00;;
1505;SDS011;744;51.436;7.356;2023-06-22T06:36:23;13.20;;;12.00;;
1505;SDS011;744;51.436;7.356;2023-06-22T06:38:50;21.93;;;11.47;;
1505;SDS011;744;51.436;7.356;2023-06-22T06:41:17;31.87;;;12.67;;
1505;SDS011;744;51.436;7.356;2023-06-22T06:43:45;14.60;;;11.60;;
1505;SDS011;744;51.436;7.356;2023-06-22T06:46:12;12.67;;;11.37;;
1505;SDS011;744;51.436;7.356;2023-06-22T06:48:38;36.70;;;17.57;;
1505;SDS011;744;51.436;7.356;2023-06-22T06:51:06;13.40;;;12.03;;
1505;SDS011;744;51.436;7.356;2023-06-22T06:53:36;12.77;;;11.67;;
1505;SDS011;744;51.436;7.356;2023-06-22T06:56:04;12.20;;;11.20;;
1505;SDS011;744;51.436;7.356;2023-06-22T06:58:31;12.27;;;10.93;;
1505;SDS011;744;51.436;7.356;2023-06-22T07:00:58;12.07;;;10.97;;
1505;SDS011;744;51.436;7.356;2023-06-22T07:03:25;14.10;;;11.30;;
1505;SDS011;744;51.436;7.356;2023-06-22T07:05:52;20.73;;;12.40;;
1505;SDS011;744;51.436;7.356;2023-06-22T07:08:19;36.47;;;14.13;;
1505;SDS011;744;51.436;7.356;2023-06-22T07:10:46;13.00;;;11.90;;
1505;SDS011;744;51.436;7.356;2023-06-22T07:13:13;13.90;;;12.50;;
1505;SDS011;744;51.436;7.356;2023-06-22T07:15:39;12.43;;;11.10;;
1505;SDS011;744;51.436;7.356;2023-06-22T07:18:06;13.93;;;12.33;;
1505;SDS011;744;51.436;7.356;2023-06-22T07:20:33;13.83;;;12.33;;
1505;SDS011;744;51.436;7.356;2023-06-22T07:23:00;13.57;;;11.20;;
1505;SDS011;744;51.436;7.356;2023-06-22T07:25:28;13.60;;;12.20;;
1505;SDS011;744;51.436;7.356;2023-06-22T07:28:04;14.10;;;11.70;;
1505;SDS011;744;51.436;7.356;2023-06-22T07:30:32;13.03;;;11.73;;
1505;SDS011;744;51.436;7.356;2023-06-22T07:33:01;13.37;;;12.03;;
1505;SDS011;744;51.436;7.356;2023-06-22T07:35:34;13.50;;;12.20;;
1505;SDS011;744;51.436;7.356;2023-06-22T07:38:01;14.23;;;13.00;;
1505;SDS011;744;51.436;7.356;2023-06-22T07:40:31;14.03;;;12.90;;
1505;SDS011;744;51.436;7.356;2023-06-22T07:42:59;13.00;;;11.87;;
1505;SDS011;744;51.436;7.356;2023-06-22T07:45:26;13.70;;;12.40;;
1505;SDS011;744;51.436;7.356;2023-06-22T07:47:53;14.90;;;13.33;;
1505;SDS011;744;51.436;7.356;2023-06-22T07:50:20;13.77;;;12.57;;
1505;SDS011;744;51.436;7.356;2023-06-22T07:52:47;14.80;;;13.40;;
1505;SDS011;744;51.436;7.356;2023-06-22T07:55:14;14.80;;;13.53;;
1505;SDS011;744;51.436;7.356;2023-06-22T07:57:41;19.87;;;15.10;;
1505;SDS011;744;51.436;7.356;2023-06-22T08:00:08;14.90;;;13.60;;
1505;SDS011;744;51.436;7.356;2023-06-22T08:02:44;14.63;;;13.30;;
1505;SDS011;744;51.436;7.356;2023-06-22T08:05:13;15.17;;;13.77;;
1505;SDS011;744;51.436;7.356;2023-06-22T08:07:59;16.90;;;15.47;;
1505;SDS011;744;51.436;7.356;2023-06-22T08:10:26;16.37;;;14.60;;
1505;SDS011;744;51.436;7.356;2023-06-22T08:12:53;17.47;;;15.67;;
1505;SDS011;744;51.436;7.356;2023-06-22T08:15:20;18.93;;;14.57;;
1505;SDS011;744;51.436;7.356;2023-06-22T08:17:48;14.87;;;13.60;;
1505;SDS011;744;51.436;7.356;2023-06-22T08:20:15;20.17;;;18.13;;
1505;SDS011;744;51.436;7.356;2023-06-22T08:22:42;18.80;;;17.10;;
1505;SDS011;744;51.436;7.356;2023-06-22T08:25:10;18.40;;;16.23;;
1505;SDS011;744;51.436;7.356;2023-06-22T08:27:37;16.57;;;14.97;;
1505;SDS011;744;51.436;7.356;2023-06-22T08:30:04;17.70;;;15.87;;
1505;SDS011;744;51.436;7.356;2023-06-22T08:32:33;17.60;;;16.10;;
1505;SDS011;744;51.436;7.356;2023-06-22T08:35:00;15.80;;;14.20;;
1505;SDS011;744;51.436;7.356;2023-06-22T08:37:27;14.27;;;13.13;;
1505;SDS011;744;51.436;7.356;2023-06-22T08:40:01;18.20;;;16.30;;
1505;SDS011;744;51.436;7.356;2023-06-22T08:42:36;15.50;;;13.90;;
1505;SDS011;744;51.436;7.356;2023-06-22T08:45:04;15.47;;;14.17;;
1505;SDS011;744;51.436;7.356;2023-06-22T08:47:31;15.03;;;13.63;;
1505;SDS011;744;51.436;7.356;2023-06-22T08:49:58;16.40;;;14.67;;
1505;SDS011;744;51.436;7.356;2023-06-22T08:52:25;15.30;;;14.00;;
1505;SDS011;744;51.436;7.356;2023-06-22T08:54:52;15.13;;;13.07;;
1505;SDS011;744;51.436;7.356;2023-06-22T08:57:20;20.40;;;11.13;;
1505;SDS011;744;51.436;7.356;2023-06-22T08:59:47;11.80;;;10.60;;
1505;SDS011;744;51.436;7.356;2023-06-22T09:02:14;12.30;;;11.27;;
1505;SDS011;744;51.436;7.356;2023-06-22T09:04:41;17.47;;;12.83;;
1505;SDS011;744;51.436;7.356;2023-06-22T09:07:08;13.23;;;12.03;;
1505;SDS011;744;51.436;7.356;2023-06-22T09:09:35;11.80;;;10.60;;
1505;SDS011;744;51.436;7.356;2023-06-22T09:12:02;12.70;;;11.40;;
1505;SDS011;744;51.436;7.356;2023-06-22T09:14:29;12.20;;;11.20;;
1505;SDS011;744;51.436;7.356;2023-06-22T09:16:56;11.17;;;10.17;;
1505;SDS011;744;51.436;7.356;2023-06-22T09:19:23;11.50;;;10.60;;
1505;SDS011;744;51.436;7.356;2023-06-22T09:21:50;11.53;;;10.40;;
1505;SDS011;744;51.436;7.356;2023-06-22T09:24:16;12.60;;;11.40;;
1505;SDS011;744;51.436;7.356;2023-06-22T09:26:43;9.63;;;8.67;;
1505;SDS011;744;51.436;7.356;2023-06-22T09:29:10;9.57;;;8.77;;
1505;SDS011;744;51.436;7.356;2023-06-22T09:31:37;12.40;;;10.10;;
1505;SDS011;744;51.436;7.356;2023-06-22T09:34:04;11.37;;;10.33;;
1505;SDS011;744;51.436;7.356;2023-06-22T09:36:31;10.00;;;9.10;;
1505;SDS011;744;51.436;7.356;2023-06-22T09:38:57;9.50;;;8.60;;
1505;SDS011;744;51.436;7.356;2023-06-22T09:41:25;8.73;;;7.83;;
1505;SDS011;744;51.436;7.356;2023-06-22T09:43:52;11.17;;;10.27;;
1505;SDS011;744;51.436;7.356;2023-06-22T09:46:22;9.90;;;8.90;;
1505;SDS011;744;51.436;7.356;2023-06-22T09:48:51;10.23;;;8.93;;
1505;SDS011;744;51.436;7.356;2023-06-22T09:51:18;10.37;;;9.17;;
1505;SDS011;744;51.436;7.356;2023-06-22T09:53:47;10.57;;;8.93;;
1505;SDS011;744;51.436;7.356;2023-06-22T09:56:14;10.07;;;8.20;;
1505;SDS011;744;51.436;7.356;2023-06-22T09:58:42;8.67;;;7.93;;
1505;SDS011;744;51.436;7.356;2023-06-22T10:01:10;9.07;;;7.73;;
1505;SDS011;744;51.436;7.356;2023-06-22T10:03:37;8.50;;;7.80;;
1505;SDS011;744;51.436;7.356;2023-06-22T10:06:04;9.87;;;8.97;;
1505;SDS011;744;51.436;7.356;2023-06-22T10:08:31;8.47;;;7.77;;
1505;SDS011;744;51.436;7.356;2023-06-22T10:10:58;8.93;;;8.13;;
1505;SDS011;744;51.436;7.356;2023-06-22T10:13:25;9.33;;;7.40;;
1505;SDS011;744;51.436;7.356;2023-06-22T10:15:52;7.90;;;7.30;;
1505;SDS011;744;51.436;7.356;2023-06-22T10:18:19;11.03;;;10.03;;
1505;SDS011;744;51.436;7.356;2023-06-22T10:20:47;9.70;;;8.80;;
1505;SDS011;744;51.436;7.356;2023-06-22T10:23:16;9.97;;;9.00;;
1505;SDS011;744;51.436;7.356;2023-06-22T10:25:43;10.37;;;9.47;;
1505;SDS011;744;51.436;7.356;2023-06-22T10:28:10;10.20;;;9.30;;
1505;SDS011;744;51.436;7.356;2023-06-22T10:30:39;14.53;;;10.30;;
1505;SDS011;744;51.436;7.356;2023-06-22T10:33:08;10.00;;;9.20;;
1505;SDS011;744;51.436;7.356;2023-06-22T10:35:35;10.23;;;9.20;;
1505;SDS011;744;51.436;7.356;2023-06-22T10:38:04;10.23;;;9.23;;
1505;SDS011;744;51.436;7.356;2023-06-22T10:40:31;9.97;;;9.00;;
1505;SDS011;744;51.436;7.356;2023-06-22T10:42:58;11.20;;;10.10;;
1505;SDS011;744;51.436;7.356;2023-06-22T10:45:25;12.30;;;10.40;;
1505;SDS011;744;51.436;7.356;2023-06-22T10:47:54;11.37;;;10.13;;
1505;SDS011;744;51.436;7.356;2023-06-22T10:50:21;9.83;;;8.83;;
1505;SDS011;744;51.436;7.356;2023-06-22T10:52:50;11.60;;;10.47;;
1505;SDS011;744;51.436;7.356;2023-06-22T10:55:17;11.40;;;10.40;;
1505;SDS011;744;51.436;7.356;2023-06-22T10:57:44;16.30;;;9.90;;
1505;SDS011;744;51.436;7.356;2023-06-22T11:00:13;11.20;;;10.30;;
1505;SDS011;744;51.436;7.356;2023-06-22T11:02:42;10.07;;;9.17;;
1505;SDS011;744;51.436;7.356;2023-06-22T11:05:09;10.90;;;10.00;;
1505;SDS011;744;51.436;7.356;2023-06-22T11:07:37;9.93;;;9.03;;
1505;SDS011;744;51.436;7.356;2023-06-22T11:10:12;9.33;;;8.57;;
1505;SDS011;744;51.436;7.356;2023-06-22T11:12:39;9.77;;;9.03;;
1505;SDS011;744;51.436;7.356;2023-06-22T11:15:06;10.17;;;9.30;;
1505;SDS011;744;51.436;7.356;2023-06-22T11:17:36;21.63;;;10.70;;
1505;SDS011;744;51.436;7.356;2023-06-22T11:20:03;11.43;;;10.30;;
1505;SDS011;744;51.436;7.356;2023-06-22T11:22:40;12.70;;;11.60;;
1505;SDS011;744;51.436;7.356;2023-06-22T11:25:07;11.93;;;10.93;;
1505;SDS011;744;51.436;7.356;2023-06-22T11:27:35;11.33;;;10.33;;
1505;SDS011;744;51.436;7.356;2023-06-22T11:30:02;12.53;;;11.43;;
1505;SDS011;744;51.436;7.356;2023-06-22T11:32:29;10.87;;;9.73;;
1505;SDS011;744;51.436;7.356;2023-06-22T11:34:56;16.00;;;12.50;;
1505;SDS011;744;51.436;7.356;2023-06-22T11:37:23;18.80;;;12.70;;
1505;SDS011;744;51.436;7.356;2023-06-22T11:39:51;14.27;;;12.97;;
1505;SDS011;744;51.436;7.356;2023-06-22T11:42:24;18.77;;;13.70;;
1505;SDS011;744;51.436;7.356;2023-06-22T11:44:51;14.63;;;13.33;;
1505;SDS011;744;51.436;7.356;2023-06-22T11:47:18;16.60;;;14.17;;
1505;SDS011;744;51.436;7.356;2023-06-22T11:49:45;16.20;;;14.50;;
1505;SDS011;744;51.436;7.356;2023-06-22T11:52:12;16.90;;;14.20;;
1505;SDS011;744;51.436;7.356;2023-06-22T11:54:39;17.90;;;14.80;;
1505;SDS011;744;51.436;7.356;2023-06-22T11:57:06;17.80;;;15.30;;
1505;SDS011;744;51.436;7.356;2023-06-22T11:59:32;25.93;;;15.37;;
1505;SDS011;744;51.436;7.356;2023-06-22T12:01:59;18.67;;;14.70;;
1505;SDS011;744;51.436;7.356;2023-06-22T12:04:26;16.60;;;14.93;;
1505;SDS011;744;51.436;7.356;2023-06-22T12:06:53;14.70;;;13.20;;
1505;SDS011;744;51.436;7.356;2023-06-22T12:09:20;15.10;;;13.70;;
1505;SDS011;744;51.436;7.356;2023-06-22T12:11:47;14.57;;;13.10;;
1505;SDS011;744;51.436;7.356;2023-06-22T12:14:14;16.37;;;14.67;;
1505;SDS011;744;51.436;7.356;2023-06-22T12:16:41;14.37;;;12.97;;
1505;SDS011;744;51.436;7.356;2023-06-22T12:19:10;15.57;;;14.00;;
1505;SDS011;744;51.436;7.356;2023-06-22T12:21:38;14.13;;;12.70;;
1505;SDS011;744;51.436;7.356;2023-06-22T12:24:06;18.03;;;14.50;;
1505;SDS011;744;51.436;7.356;2023-06-22T12:26:33;13.63;;;12.33;;
1505;SDS011;744;51.436;7.356;2023-06-22T12:29:00;14.53;;;12.90;;
1505;SDS011;744;51.436;7.356;2023-06-22T12:31:27;15.70;;;14.30;;
1505;SDS011;744;51.436;7.356;2023-06-22T12:33:54;15.40;;;13.70;;
1505;SDS011;744;51.436;7.356;2023-06-22T12:36:21;15.73;;;14.20;;
1505;SDS011;744;51.436;7.356;2023-06-22T12:38:48;14.47;;;13.07;;
1505;SDS011;744;51.436;7.356;2023-06-22T12:41:15;15.60;;;14.00;;
1505;SDS011;744;51.436;7.356;2023-06-22T12:43:42;16.70;;;15.10;;
1505;SDS011;744;51.436;7.356;2023-06-22T12:46:09;16.03;;;14.43;;
1505;SDS011;744;51.436;7.356;2023-06-22T12:48:35;17.40;;;15.63;;
1505;SDS011;744;51.436;7.356;2023-06-22T12:51:08;19.23;;;16.83;;
1505;SDS011;744;51.436;7.356;2023-06-22T12:53:36;18.03;;;16.43;;
1505;SDS011;744;51.436;7.356;2023-06-22T12:56:03;15.90;;;14.40;;
1505;SDS011;744;51.436;7.356;2023-06-22T12:58:30;15.53;;;14.03;;
1505;SDS011;744;51.436;7.356;2023-06-22T13:00:57;16.30;;;14.70;;
1505;SDS011;744;51.436;7.356;2023-06-22T13:03:24;16.00;;;14.40;;
1505;SDS011;744;51.436;7.356;2023-06-22T13:05:53;16.83;;;15.33;;
1505;SDS011;744;51.436;7.356;2023-06-22T13:08:20;15.73;;;14.23;;
1505;SDS011;744;51.436;7.356;2023-06-22T13:10:47;16.00;;;13.97;;
1505;SDS011;744;51.436;7.356;2023-06-22T13:13:14;16.10;;;14.60;;
1505;SDS011;744;51.436;7.356;2023-06-22T13:15:41;16.63;;;15.13;;
1505;SDS011;744;51.436;7.356;2023-06-22T13:18:07;15.40;;;14.00;;
1505;SDS011;744;51.436;7.356;2023-06-22T13:20:34;16.53;;;14.93;;
1505;SDS011;744;51.436;7.356;2023-06-22T13:23:01;14.13;;;12.93;;
1505;SDS011;744;51.436;7.356;2023-06-22T13:25:28;16.93;;;15.00;;
1505;SDS011;744;51.436;7.356;2023-06-22T13:27:55;15.60;;;14.40;;
1505;SDS011;744;51.436;7.356;2023-06-22T13:30:22;15.00;;;13.70;;
1505;SDS011;744;51.436;7.356;2023-06-22T13:32:49;16.87;;;15.10;;
1505;SDS011;744;51.436;7.356;2023-06-22T13:35:16;15.10;;;13.90;;
1505;SDS011;744;51.436;7.356;2023-06-22T13:37:43;15.70;;;14.40;;
1505;SDS011;744;51.436;7.356;2023-06-22T13:40:10;16.27;;;14.70;;
1505;SDS011;744;51.436;7.356;2023-06-22T13:42:37;15.70;;;14.20;;
1505;SDS011;744;51.436;7.356;2023-06-22T13:45:04;13.90;;;12.80;;
1505;SDS011;744;51.436;7.356;2023-06-22T13:47:32;15.43;;;14.00;;
1505;SDS011;744;51.436;7.356;2023-06-22T13:49:59;14.70;;;13.40;;
1505;SDS011;744;51.436;7.356;2023-06-22T13:52:26;13.60;;;12.50;;
1505;SDS011;744;51.436;7.356;2023-06-22T13:54:53;13.00;;;11.73;;
1505;SDS011;744;51.436;7.356;2023-06-22T13:57:20;15.50;;;12.60;;
1505;SDS011;744;51.436;7.356;2023-06-22T13:59:47;12.87;;;11.87;;
1505;SDS011;744;51.436;7.356;2023-06-22T14:02:14;13.67;;;12.37;;
1505;SDS011;744;51.436;7.356;2023-06-22T14:04:40;13.07;;;11.77;;
1505;SDS011;744;51.436;7.356;2023-06-22T14:07:07;12.97;;;11.93;;
1505;SDS011;744;51.436;7.356;2023-06-22T14:09:34;12.63;;;11.63;;
1505;SDS011;744;51.436;7.356;2023-06-22T14:12:05;16.00;;;14.40;;
1505;SDS011;744;51.436;7.356;2023-06-22T14:14:33;12.80;;;11.60;;
1505;SDS011;744;51.436;7.356;2023-06-22T14:17:00;14.50;;;13.10;;
1505;SDS011;744;51.436;7.356;2023-06-22T14:19:27;14.13;;;12.80;;
1505;SDS011;744;51.436;7.356;2023-06-22T14:21:54;16.97;;;15.40;;
1505;SDS011;744;51.436;7.356;2023-06-22T14:24:21;13.87;;;12.67;;
1505;SDS011;744;51.436;7.356;2023-06-22T14:26:51;13.50;;;12.40;;
1505;SDS011;744;51.436;7.356;2023-06-22T14:29:18;14.27;;;12.77;;
1505;SDS011;744;51.436;7.356;2023-06-22T14:31:45;14.30;;;13.00;;
1505;SDS011;744;51.436;7.356;2023-06-22T14:34:13;14.33;;;13.00;;
1505;SDS011;744;51.436;7.356;2023-06-22T14:36:40;14.30;;;13.10;;
1505;SDS011;744;51.436;7.356;2023-06-22T14:39:08;14.20;;;12.90;;
1505;SDS011;744;51.436;7.356;2023-06-22T14:41:35;13.63;;;12.43;;
1505;SDS011;744;51.436;7.356;2023-06-22T14:44:02;19.53;;;12.70;;
1505;SDS011;744;51.436;7.356;2023-06-22T14:46:29;13.33;;;12.23;;
1505;SDS011;744;51.436;7.356;2023-06-22T14:48:56;15.10;;;13.90;;
1505;SDS011;744;51.436;7.356;2023-06-22T14:51:23;12.23;;;11.30;;
1505;SDS011;744;51.436;7.356;2023-06-22T14:53:49;13.27;;;12.07;;
1505;SDS011;744;51.436;7.356;2023-06-22T14:56:16;13.07;;;11.87;;
1505;SDS011;744;51.436;7.356;2023-06-22T14:58:43;14.53;;;13.40;;
1505;SDS011;744;51.436;7.356;2023-06-22T15:01:14;13.67;;;12.40;;
1505;SDS011;744;51.436;7.356;2023-06-22T15:03:43;14.53;;;13.23;;
1505;SDS011;744;51.436;7.356;2023-06-22T15:06:10;14.73;;;13.43;;
1505;SDS011;744;51.436;7.356;2023-06-22T15:08:37;15.60;;;14.03;;
1505;SDS011;744;51.436;7.356;2023-06-22T15:11:05;14.20;;;12.90;;
1505;SDS011;744;51.436;7.356;2023-06-22T15:13:33;15.40;;;13.50;;
1505;SDS011;744;51.436;7.356;2023-06-22T15:16:01;16.60;;;15.00;;
1505;SDS011;744;51.436;7.356;2023-06-22T15:18:31;15.47;;;14.17;;
1505;SDS011;744;51.436;7.356;2023-06-22T15:21:02;16.17;;;14.67;;
1505;SDS011;744;51.436;7.356;2023-06-22T15:23:30;16.30;;;14.90;;
1505;SDS011;744;51.436;7.356;2023-06-22T15:25:58;16.70;;;15.00;;
1505;SDS011;744;51.436;7.356;2023-06-22T15:28:32;17.33;;;15.53;;
1505;SDS011;744;51.436;7.356;2023-06-22T15:31:01;17.73;;;16.00;;
1505;SDS011;744;51.436;7.356;2023-06-22T15:33:28;17.07;;;15.40;;
1505;SDS011;744;51.436;7.356;2023-06-22T15:35:58;17.30;;;15.80;;
1505;SDS011;744;51.436;7.356;2023-06-22T15:38:30;17.57;;;15.97;;
1505;SDS011;744;51.436;7.356;2023-06-22T15:40:57;17.33;;;15.90;;
1505;SDS011;744;51.436;7.356;2023-06-22T15:43:24;20.03;;;18.27;;
1505;SDS011;744;51.436;7.356;2023-06-22T15:45:51;18.67;;;17.07;;
1505;SDS011;744;51.436;7.356;2023-06-22T15:48:22;21.27;;;19.47;;
1505;SDS011;744;51.436;7.356;2023-06-22T15:50:49;20.67;;;18.53;;
1505;SDS011;744;51.436;7.356;2023-06-22T15:53:16;24.40;;;22.10;;
1505;SDS011;744;51.436;7.356;2023-06-22T15:55:43;21.70;;;19.80;;
1505;SDS011;744;51.436;7.356;2023-06-22T15:58:10;20.30;;;18.50;;
1505;SDS011;744;51.436;7.356;2023-06-22T16:00:39;20.97;;;19.17;;
1505;SDS011;744;51.436;7.356;2023-06-22T16:03:06;21.23;;;19.47;;
1505;SDS011;744;51.436;7.356;2023-06-22T16:05:33;20.37;;;18.57;;
1505;SDS011;744;51.436;7.356;2023-06-22T16:08:00;20.30;;;18.30;;
1505;SDS011;744;51.436;7.356;2023-06-22T16:10:27;19.50;;;17.90;;
1505;SDS011;744;51.436;7.356;2023-06-22T16:12:54;21.87;;;19.87;;
1505;SDS011;744;51.436;7.356;2023-06-22T16:15:21;21.90;;;19.87;;
1505;SDS011;744;51.436;7.356;2023-06-22T16:17:48;21.60;;;19.40;;
1505;SDS011;744;51.436;7.356;2023-06-22T16:20:15;24.00;;;21.50;;
1505;SDS011;744;51.436;7.356;2023-06-22T16:22:43;24.00;;;21.80;;
1505;SDS011;744;51.436;7.356;2023-06-22T16:25:12;24.63;;;22.30;;
1505;SDS011;744;51.436;7.356;2023-06-22T16:27:39;28.57;;;26.03;;
1505;SDS011;744;51.436;7.356;2023-06-22T16:30:06;30.60;;;27.40;;
1505;SDS011;744;51.436;7.356;2023-06-22T16:32:34;29.80;;;27.00;;
1505;SDS011;744;51.436;7.356;2023-06-22T16:35:01;29.60;;;25.73;;
1505;SDS011;744;51.436;7.356;2023-06-22T16:37:29;28.80;;;26.10;;
1505;SDS011;744;51.436;7.356;2023-06-22T16:39:56;29.80;;;26.90;;
1505;SDS011;744;51.436;7.356;2023-06-22T16:42:23;29.87;;;26.80;;
1505;SDS011;744;51.436;7.356;2023-06-22T16:44:50;26.97;;;24.57;;
1505;SDS011;744;51.436;7.356;2023-06-22T16:47:17;27.30;;;24.80;;
1505;SDS011;744;51.436;7.356;2023-06-22T16:49:44;26.63;;;24.07;;
1505;SDS011;744;51.436;7.356;2023-06-22T16:52:11;26.30;;;23.90;;
1505;SDS011;744;51.436;7.356;2023-06-22T16:54:38;25.30;;;22.90;;
1505;SDS011;744;51.436;7.356;2023-06-22T16:57:25;22.87;;;20.60;;
1505;SDS011;744;51.436;7.356;2023-06-22T16:59:52;21.03;;;18.97;;
1505;SDS011;744;51.436;7.356;2023-06-22T17:02:20;29.23;;;26.47;;
1505;SDS011;744;51.436;7.356;2023-06-22T17:04:53;32.43;;;29.60;;
1505;SDS011;744;51.436;7.356;2023-06-22T17:07:22;33.27;;;30.27;;
1505;SDS011;744;51.436;7.356;2023-06-22T17:09:51;33.40;;;30.40;;
1505;SDS011;744;51.436;7.356;2023-06-22T17:12:18;35.07;;;31.77;;
1505;SDS011;744;51.436;7.356;2023-06-22T17:14:45;37.10;;;33.20;;
1505;SDS011;744;51.436;7.356;2023-06-22T17:17:13;34.17;;;31.17;;
1505;SDS011;744;51.436;7.356;2023-06-22T17:19:43;34.93;;;31.57;;
1505;SDS011;744;51.436;7.356;2023-06-22T17:22:11;34.77;;;31.47;;
1505;SDS011;744;51.436;7.356;2023-06-22T17:24:39;36.20;;;32.70;;
1505;SDS011;744;51.436;7.356;2023-06-22T17:27:06;36.73;;;33.33;;
1505;SDS011;744;51.436;7.356;2023-06-22T17:29:33;36.23;;;32.90;;
1505;SDS011;744;51.436;7.356;2023-06-22T17:32:04;36.33;;;32.70;;
1505;SDS011;744;51.436;7.356;2023-06-22T17:34:31;37.57;;;32.90;;
1505;SDS011;744;51.436;7.356;2023-06-22T17:36:58;33.17;;;30.27;;
1505;SDS011;744;51.436;7.356;2023-06-22T17:39:26;32.23;;;28.83;;
1505;SDS011;744;51.436;7.356;2023-06-22T17:41:57;32.97;;;29.80;;
1505;SDS011;744;51.436;7.356;2023-06-22T17:44:27;31.13;;;28.33;;
1505;SDS011;744;51.436;7.356;2023-06-22T17:46:55;26.13;;;23.93;;
1505;SDS011;744;51.436;7.356;2023-06-22T17:49:29;26.17;;;23.77;;
1505;SDS011;744;51.436;7.356;2023-06-22T17:52:02;24.40;;;21.90;;
1505;SDS011;744;51.436;7.356;2023-06-22T17:54:30;24.73;;;22.53;;
1505;SDS011;744;51.436;7.356;2023-06-22T17:57:16;23.70;;;21.60;;
1505;SDS011;744;51.436;7.356;2023-06-22T17:59:48;23.63;;;21.23;;
1505;SDS011;744;51.436;7.356;2023-06-22T18:02:19;24.43;;;22.13;;
1505;SDS011;744;51.436;7.356;2023-06-22T18:04:56;24.93;;;22.30;;
1505;SDS011;744;51.436;7.356;2023-06-22T18:07:23;25.43;;;23.13;;
1505;SDS011;744;51.436;7.356;2023-06-22T18:09:54;26.40;;;23.70;;
1505;SDS011;744;51.436;7.356;2023-06-22T18:12:23;24.77;;;22.00;;
1505;SDS011;744;51.436;7.356;2023-06-22T18:14:50;28.00;;;23.53;;
1505;SDS011;744;51.436;7.356;2023-06-22T18:17:18;25.60;;;23.10;;
1505;SDS011;744;51.436;7.356;2023-06-22T18:19:47;25.63;;;23.27;;
1505;SDS011;744;51.436;7.356;2023-06-22T18:22:15;26.70;;;24.03;;
1505;SDS011;744;51.436;7.356;2023-06-22T18:24:43;25.93;;;23.23;;
1505;SDS011;744;51.436;7.356;2023-06-22T18:27:11;26.07;;;23.73;;
1505;SDS011;744;51.436;7.356;2023-06-22T18:29:39;29.27;;;26.37;;
1505;SDS011;744;51.436;7.356;2023-06-22T18:32:07;26.77;;;24.17;;
1505;SDS011;744;51.436;7.356;2023-06-22T18:34:34;25.50;;;23.20;;
1505;SDS011;744;51.436;7.356;2023-06-22T18:37:03;26.97;;;24.27;;
1505;SDS011;744;51.436;7.356;2023-06-22T18:39:33;26.47;;;23.93;;
1505;SDS011;744;51.436;7.356;2023-06-22T18:42:03;28.57;;;26.27;;
1505;SDS011;744;51.436;7.356;2023-06-22T18:44:34;26.30;;;23.87;;
1505;SDS011;744;51.436;7.356;2023-06-22T18:47:02;27.43;;;24.80;;
1505;SDS011;744;51.436;7.356;2023-06-22T18:49:30;28.77;;;25.80;;
1505;SDS011;744;51.436;7.356;2023-06-22T18:54:41;26.67;;;24.17;;
1505;SDS011;744;51.436;7.356;2023-06-22T18:57:27;26.37;;;23.97;;
1505;SDS011;744;51.436;7.356;2023-06-22T19:00:08;26.73;;;24.27;;
1505;SDS011;744;51.436;7.356;2023-06-22T19:12:57;18.30;;;16.70;;
1505;SDS011;744;51.436;7.356;2023-06-22T19:15:42;18.37;;;16.50;;
1505;SDS011;744;51.436;7.356;2023-06-22T19:18:16;18.10;;;16.20;;
1505;SDS011;744;51.436;7.356;2023-06-22T19:20:53;16.87;;;15.37;;
1505;SDS011;744;51.436;7.356;2023-06-22T19:23:39;15.83;;;14.33;;
1505;SDS011;744;51.436;7.356;2023-06-22T19:28:44;12.33;;;11.27;;
1505;SDS011;744;51.436;7.356;2023-06-22T19:31:13;13.07;;;11.83;;
1505;SDS011;744;51.436;7.356;2023-06-22T19:33:41;10.00;;;9.00;;
1505;SDS011;744;51.436;7.356;2023-06-22T19:36:09;7.47;;;6.77;;
1505;SDS011;744;51.436;7.356;2023-06-22T19:38:37;6.53;;;6.00;;
1505;SDS011;744;51.436;7.356;2023-06-22T19:41:08;6.27;;;5.67;;
1505;SDS011;744;51.436;7.356;2023-06-22T19:43:35;7.60;;;4.93;;
1505;SDS011;744;51.436;7.356;2023-06-22T19:46:02;7.63;;;4.40;;
1505;SDS011;744;51.436;7.356;2023-06-22T19:48:30;8.10;;;4.30;;
1505;SDS011;744;51.436;7.356;2023-06-22T19:51:03;8.97;;;4.23;;
1505;SDS011;744;51.436;7.356;2023-06-22T19:53:32;6.27;;;3.07;;
1505;SDS011;744;51.436;7.356;2023-06-22T19:55:59;4.90;;;3.50;;
1505;SDS011;744;51.436;7.356;2023-06-22T19:58:31;4.30;;;2.40;;
1505;SDS011;744;51.436;7.356;2023-06-22T20:01:01;3.67;;;2.83;;
1505;SDS011;744;51.436;7.356;2023-06-22T20:03:32;5.43;;;3.50;;
1505;SDS011;744;51.436;7.356;2023-06-22T20:06:13;4.40;;;2.40;;
1505;SDS011;744;51.436;7.356;2023-06-22T20:08:46;8.67;;;3.40;;
1505;SDS011;744;51.436;7.356;2023-06-22T20:11:14;5.23;;;3.10;;
1505;SDS011;744;51.436;7.356;2023-06-22T20:13:51;4.43;;;3.23;;
1505;SDS011;744;51.436;7.356;2023-06-22T20:16:21;4.70;;;2.97;;
1505;SDS011;744;51.436;7.356;2023-06-22T20:18:56;3.87;;;3.10;;
1505;SDS011;744;51.436;7.356;2023-06-22T20:21:43;4.73;;;4.27;;
1505;SDS011;744;51.436;7.356;2023-06-22T20:24:10;6.60;;;4.03;;
1505;SDS011;744;51.436;7.356;2023-06-22T20:29:27;4.50;;;3.77;;
1505;SDS011;744;51.436;7.356;2023-06-22T20:34:36;8.93;;;5.77;;
1505;SDS011;744;51.436;7.356;2023-06-22T20:37:05;10.20;;;6.30;;
1505;SDS011;744;51.436;7.356;2023-06-22T20:39:33;6.70;;;6.10;;
1505;SDS011;744;51.436;7.356;2023-06-22T20:42:00;7.13;;;6.43;;
1505;SDS011;744;51.436;7.356;2023-06-22T20:44:30;7.77;;;6.20;;
1505;SDS011;744;51.436;7.356;2023-06-22T20:46:57;12.23;;;9.03;;
1505;SDS011;744;51.436;7.356;2023-06-22T20:49:24;9.80;;;7.70;;